Samos, Greece
Current Conditions -  °F | °C
As of 6:20 PM on Thursday 23 Oct 2014 (Local Time) from LGSM Reporting Station
Broken Clouds Broken Clouds  
Wind Chill: 21°   Ceiling: 6000
Heat Index: 21°   Visibility: 6mi
Dew Point: 18°   Wind: 17mph
Humidity: 83%   Direction: 210°SSW
Pressure: 29.68"   Gusts: NA
Location:  37.76°N, 26.98°E
Report Text: LGSM 231520Z 21015KT 9999 SCT025 BKN060 BKN170 21/18 Q1005
Loading
Personal Weather Stations






























Interactive Weather Map
Tropical Storm Tracking
New forecast layout! Learn more

10-Day Weather Forecast

Advertisements
Track Severe Weather on mobile